createdAt,value
2018-11-14T16:52:05.220Z,10.40
2018-11-14T16:53:04.763Z,13.40
2018-11-14T16:54:04.705Z,11.50
2018-11-14T16:55:04.765Z,18.40
2018-11-14T16:56:04.628Z,17.60
2018-11-14T16:57:04.633Z,24.20
2018-11-14T17:09:07.703Z,25.60
2018-11-14T17:10:07.333Z,27.80
2018-11-14T17:11:07.294Z,27.60
2018-11-14T17:12:07.364Z,29.20
2018-11-14T17:34:00.620Z,22.80
2018-11-14T17:35:00.157Z,17.50
2018-11-14T17:36:00.105Z,17.90
2018-11-14T17:37:00.050Z,19.10
2018-11-14T17:37:59.992Z,19.00
2018-11-14T17:38:59.977Z,16.80
2018-11-14T17:39:59.973Z,20.70
2018-11-14T17:40:59.950Z,23.20
2018-11-14T17:42:00.073Z,17.00
2018-11-14T17:43:00.040Z,19.20
2018-11-14T17:43:59.926Z,17.60
2018-11-14T17:44:59.903Z,18.30
2018-11-14T17:45:59.887Z,18.40
2018-11-14T17:46:59.880Z,15.90
2018-11-14T17:47:59.863Z,15.60
2018-11-14T17:48:59.902Z,14.00
2018-11-14T17:49:59.845Z,18.20
2018-11-14T17:50:59.835Z,16.00
2018-11-14T17:51:59.820Z,13.80
2018-11-14T17:52:59.933Z,16.20
2018-11-14T17:53:59.799Z,15.70
2018-11-14T17:54:59.807Z,14.10
2018-11-14T17:55:59.785Z,16.20
2018-11-14T17:56:59.801Z,15.20
2018-11-14T17:57:59.819Z,14.30
2018-11-14T17:58:59.753Z,17.70
2018-11-14T17:59:59.767Z,16.10
2018-11-14T18:00:59.815Z,15.00
2018-11-14T18:01:59.727Z,19.60
2018-11-14T18:02:59.772Z,16.70
2018-11-14T18:03:59.705Z,17.20
2018-11-14T18:04:59.694Z,16.40
2018-11-14T18:05:59.674Z,17.30
2018-11-14T18:06:59.699Z,16.60
2018-11-14T18:07:59.650Z,16.40
2018-11-14T18:08:59.648Z,15.60
2018-11-14T18:09:59.638Z,15.70
2018-11-14T18:10:59.637Z,15.90
2018-11-14T18:11:59.656Z,15.10
2018-11-14T18:12:59.598Z,18.30
2018-11-14T18:13:59.602Z,18.00
2018-11-14T18:14:59.584Z,15.50
2018-11-14T18:15:59.574Z,18.00
2018-11-14T18:16:59.572Z,13.90
2018-11-14T18:17:59.544Z,17.20
2018-11-14T18:18:59.536Z,15.50
2018-11-14T18:19:59.567Z,14.00
2018-11-14T18:20:59.514Z,16.80
2018-11-14T18:21:59.508Z,15.50
2018-11-14T18:22:59.554Z,14.40
2018-11-14T18:23:59.479Z,16.60
2018-11-14T18:24:59.472Z,13.60
2018-11-14T18:25:59.500Z,15.10
2018-11-14T18:26:59.451Z,12.70
2018-11-14T18:27:59.446Z,17.30
2018-11-14T18:28:59.449Z,17.70
2018-11-14T18:29:59.480Z,21.30
2018-11-14T18:30:59.403Z,19.80
2018-11-14T18:31:59.413Z,17.60
2018-11-14T18:32:59.413Z,19.70
2018-11-14T18:33:59.413Z,19.70
2018-11-14T18:34:59.367Z,23.00
2018-11-14T18:35:59.366Z,21.80
2018-11-14T18:36:59.342Z,18.20
2018-11-14T18:37:59.335Z,19.40
2018-11-14T18:38:59.335Z,20.20
2018-11-14T18:39:59.328Z,20.30
2018-11-14T18:40:59.318Z,19.00
2018-11-14T18:41:59.288Z,19.60
2018-11-14T18:42:59.276Z,20.30
2018-11-14T18:43:59.306Z,18.40
2018-11-14T18:44:59.274Z,19.00
2018-11-14T18:45:59.276Z,16.80
2018-11-14T18:46:59.234Z,15.70
2018-11-14T18:47:59.225Z,17.40
2018-11-14T18:48:59.209Z,17.70
2018-11-14T18:49:59.217Z,14.70
2018-11-14T18:50:59.193Z,13.90
2018-11-14T18:51:59.309Z,16.80
2018-11-14T18:52:59.196Z,15.60
2018-11-14T18:53:59.175Z,14.70
2018-11-14T18:54:59.379Z,15.20
2018-11-14T18:55:59.202Z,15.40
2018-11-14T18:56:59.129Z,16.40
2018-11-14T18:57:59.284Z,13.00
2018-11-14T18:58:59.107Z,15.40
2018-11-14T18:59:59.093Z,14.30
2018-11-14T19:00:59.127Z,12.10
2018-11-14T19:01:59.075Z,13.30
2018-11-14T19:02:59.066Z,12.60
2018-11-14T19:03:59.047Z,15.80
2018-11-14T19:04:59.034Z,15.90
2018-11-14T19:05:59.069Z,15.40
2018-11-14T19:06:59.104Z,13.80
2018-11-14T19:07:59.008Z,14.30
2018-11-14T19:08:59.012Z,14.10
2018-11-14T19:09:59.033Z,16.30
2018-11-14T19:11:07.383Z,14.60
2018-11-14T19:11:59.094Z,14.70
2018-11-14T19:12:59.009Z,14.70
2018-11-14T19:13:59.056Z,12.80
2018-11-14T19:14:59.065Z,17.60
2018-11-14T19:15:58.983Z,17.60
2018-11-14T19:16:58.904Z,12.50
2018-11-14T19:17:58.897Z,12.10
2018-11-14T19:18:58.968Z,12.90
2018-11-14T19:19:58.881Z,13.80
2018-11-14T19:20:58.861Z,11.90
2018-11-14T19:21:58.903Z,13.40
2018-11-14T19:22:58.843Z,14.20
2018-11-14T19:23:58.832Z,12.70
2018-11-14T19:24:58.825Z,13.70
2018-11-14T19:25:58.814Z,10.10
2018-11-14T19:26:58.816Z,11.60
2018-11-14T19:27:58.803Z,13.10
2018-11-14T19:28:58.782Z,11.20
2018-11-14T19:29:58.768Z,11.90
2018-11-14T19:30:58.758Z,12.00
2018-11-14T19:31:58.777Z,14.70
2018-11-14T19:32:58.772Z,14.60
2018-11-14T19:33:58.720Z,14.20
2018-11-14T19:34:58.709Z,17.10
2018-11-14T19:36:01.151Z,16.00
2018-11-14T19:36:58.736Z,14.40
2018-11-14T19:37:58.678Z,13.50
2018-11-14T19:38:58.669Z,12.20
2018-11-14T19:39:58.689Z,14.80
2018-11-14T19:40:58.667Z,18.10
2018-11-14T19:41:58.634Z,15.40
2018-11-14T19:42:58.705Z,16.70
2018-11-14T19:43:58.644Z,13.90
2018-11-14T19:44:58.605Z,15.30
2018-11-14T19:45:58.609Z,17.90
2018-11-14T19:46:58.614Z,14.90
2018-11-14T19:47:58.590Z,17.00
2018-11-14T19:48:58.602Z,15.10
2018-11-14T19:49:58.554Z,14.90
2018-11-14T19:50:58.543Z,16.10
2018-11-14T19:51:58.542Z,16.30
2018-11-14T19:52:58.525Z,15.40
2018-11-14T19:53:58.532Z,17.40
2018-11-14T19:54:58.538Z,13.70
2018-11-14T19:55:58.566Z,14.70
2018-11-14T19:56:58.477Z,18.40
2018-11-14T19:57:58.470Z,17.30
2018-11-14T19:58:58.459Z,14.60
2018-11-14T19:59:58.475Z,16.10
2018-11-14T20:00:58.460Z,18.70
2018-11-14T20:01:58.481Z,15.10
2018-11-14T20:02:58.453Z,16.00
2018-11-14T20:03:58.404Z,12.50
2018-11-14T20:04:58.389Z,15.40
2018-11-14T20:05:58.387Z,15.50
2018-11-14T20:06:58.366Z,16.40
2018-11-14T20:07:58.390Z,17.00
2018-11-14T20:08:58.341Z,18.00
2018-11-14T20:09:58.350Z,13.80
2018-11-14T20:10:58.348Z,18.10
2018-11-14T20:11:58.307Z,14.80
2018-11-14T20:12:58.301Z,17.10
2018-11-14T20:13:58.306Z,16.20
2018-11-14T20:14:58.274Z,16.50
2018-11-14T20:15:58.285Z,13.40
2018-11-14T20:16:58.258Z,16.40
2018-11-14T20:17:58.249Z,20.50
2018-11-14T20:18:58.231Z,15.90
2018-11-14T20:19:58.273Z,16.40
2018-11-14T20:20:58.244Z,19.40
2018-11-14T20:21:58.195Z,16.80
2018-11-14T20:22:58.190Z,13.80
2018-11-14T20:23:58.237Z,16.70
2018-11-14T20:24:58.176Z,16.30
2018-11-14T20:25:58.312Z,16.40
2018-11-14T20:26:58.164Z,18.90
2018-11-14T20:27:58.131Z,19.10
2018-11-14T20:28:58.124Z,13.20
2018-11-14T20:29:58.121Z,14.00
2018-11-14T20:30:58.097Z,15.70
2018-11-14T20:31:58.184Z,17.50
2018-11-14T20:32:58.096Z,16.70
2018-11-14T20:33:58.069Z,15.60
2018-11-14T20:34:58.054Z,17.90
2018-11-14T20:35:58.050Z,17.20
2018-11-14T20:36:58.043Z,16.10
2018-11-14T20:37:58.047Z,14.60
2018-11-14T20:38:58.022Z,15.90
2018-11-14T20:39:57.997Z,15.70
2018-11-14T20:40:57.992Z,17.00
2018-11-14T20:41:57.994Z,17.50
2018-11-14T20:42:58.112Z,15.10
2018-11-14T20:43:57.964Z,15.30
2018-11-14T20:44:57.993Z,17.30
2018-11-14T20:45:57.957Z,17.90
2018-11-14T20:46:57.926Z,19.00
2018-11-14T20:47:57.922Z,19.20
2018-11-14T20:48:57.922Z,17.10
2018-11-14T20:49:57.917Z,17.10
2018-11-14T20:50:57.910Z,17.10
2018-11-14T20:51:57.875Z,16.60
2018-11-14T20:52:57.865Z,16.10
2018-11-14T20:53:57.877Z,16.00
2018-11-14T20:54:57.843Z,19.80
2018-11-14T20:55:57.854Z,17.40
2018-11-14T20:56:57.865Z,14.40
2018-11-14T20:57:57.825Z,16.40
2018-11-14T20:58:57.794Z,15.30
2018-11-14T20:59:57.786Z,14.60
2018-11-14T21:00:57.774Z,14.60
2018-11-14T21:01:57.801Z,16.60
2018-11-14T21:02:57.773Z,14.60
2018-11-14T21:03:57.743Z,16.30
2018-11-14T21:04:57.727Z,15.00
2018-11-14T21:05:57.721Z,12.80
2018-11-14T21:06:57.716Z,13.60
2018-11-14T21:07:57.775Z,13.10
2018-11-14T21:08:57.710Z,15.50
2018-11-14T21:09:57.677Z,15.20
2018-11-14T21:10:57.669Z,13.30
2018-11-14T21:11:57.651Z,15.50
2018-11-14T21:12:57.648Z,12.10
2018-11-14T21:13:57.643Z,13.80
2018-11-14T21:14:57.660Z,12.20
2018-11-14T21:15:57.655Z,14.20
2018-11-14T21:16:57.600Z,12.80
2018-11-14T21:17:57.589Z,12.60
2018-11-14T21:18:57.610Z,13.10
2018-11-14T21:19:57.576Z,12.90
2018-11-14T21:20:57.565Z,12.60
2018-11-14T21:21:57.550Z,13.10
2018-11-14T21:22:57.613Z,13.40
2018-11-14T21:23:57.545Z,15.00
2018-11-14T21:24:57.572Z,11.80
2018-11-14T21:25:57.505Z,12.20
2018-11-14T21:26:57.485Z,12.50
2018-11-14T21:27:57.483Z,15.10
2018-11-14T21:28:57.475Z,13.90
2018-11-14T21:29:57.482Z,14.60
2018-11-14T21:30:57.458Z,16.60
2018-11-14T21:31:57.432Z,12.00
2018-11-14T21:32:57.427Z,12.30
2018-11-14T21:33:57.412Z,13.10
2018-11-14T21:34:57.416Z,12.10
2018-11-14T21:35:57.425Z,14.20
2018-11-14T21:36:57.428Z,11.60
2018-11-14T21:37:57.380Z,13.50
2018-11-14T21:38:57.365Z,13.00
2018-11-14T21:39:57.354Z,14.20
2018-11-14T21:40:57.336Z,13.10
2018-11-14T21:41:57.366Z,10.70
2018-11-14T21:42:57.381Z,11.70
2018-11-14T21:43:57.315Z,16.10
2018-11-14T21:44:57.330Z,10.60
2018-11-14T21:45:57.292Z,13.10
2018-11-14T21:46:57.272Z,10.30
2018-11-14T21:47:57.320Z,11.70
2018-11-14T21:48:57.250Z,13.00
2018-11-14T21:49:57.242Z,11.50
2018-11-14T21:50:57.230Z,11.80
2018-11-14T21:51:57.245Z,11.80
2018-11-14T21:52:57.224Z,12.00
2018-11-14T21:53:57.199Z,15.20
2018-11-14T21:54:57.206Z,14.60
2018-11-14T21:55:57.173Z,14.40
2018-11-14T21:56:57.161Z,12.40
2018-11-14T21:57:57.152Z,13.90
2018-11-14T21:58:57.158Z,13.00
2018-11-14T21:59:57.273Z,13.20
2018-11-14T22:00:57.128Z,14.80
2018-11-14T22:01:57.136Z,17.20
2018-11-14T22:02:57.094Z,13.80
2018-11-14T22:03:57.102Z,12.40
2018-11-14T22:04:57.072Z,14.10
2018-11-14T22:05:57.149Z,16.70
2018-11-14T22:06:57.156Z,12.90
2018-11-14T22:07:57.046Z,14.40
2018-11-14T22:08:57.025Z,14.00
2018-11-14T22:09:57.027Z,13.70
2018-11-14T22:10:57.016Z,15.50
2018-11-14T22:11:57.024Z,17.10
2018-11-14T22:12:56.997Z,13.90
2018-11-14T22:13:56.994Z,14.40
2018-11-14T22:14:56.995Z,15.00
2018-11-14T22:15:56.989Z,14.90
2018-11-14T22:16:56.995Z,16.10
2018-11-14T22:17:56.985Z,16.00
2018-11-14T22:18:57.014Z,11.60
2018-11-14T22:19:56.962Z,14.20
2018-11-14T22:20:56.928Z,15.50
2018-11-14T22:21:56.914Z,17.00
2018-11-14T22:22:56.943Z,13.30
2018-11-14T22:23:56.877Z,12.60
2018-11-14T22:24:56.860Z,12.30
2018-11-14T22:25:56.878Z,15.40
2018-11-14T22:26:56.878Z,14.10
2018-11-14T22:27:56.895Z,16.40
2018-11-14T22:28:56.812Z,13.60
2018-11-14T22:29:56.886Z,17.90
2018-11-14T22:30:56.820Z,13.40
2018-11-14T22:31:56.777Z,11.30
2018-11-14T22:32:56.792Z,12.70
2018-11-14T22:33:56.780Z,15.10
2018-11-14T22:34:56.893Z,16.00
2018-11-14T22:35:56.747Z,14.20
2018-11-14T22:36:56.733Z,13.30
2018-11-14T22:37:56.716Z,14.10
2018-11-14T22:38:56.720Z,13.30
2018-11-14T22:39:56.696Z,13.40
2018-11-14T22:40:56.676Z,13.50
2018-11-14T22:41:56.711Z,13.80
2018-11-14T22:42:56.682Z,14.10
2018-11-14T22:43:56.663Z,16.60
2018-11-14T22:44:56.638Z,12.70
2018-11-14T22:45:56.624Z,13.30
2018-11-14T22:46:56.614Z,14.00
2018-11-14T22:47:56.628Z,16.10
2018-11-14T22:48:56.623Z,13.70
2018-11-14T22:49:56.586Z,16.20
2018-11-14T22:50:56.570Z,15.70
2018-11-14T22:51:56.566Z,14.00
2018-11-14T22:52:56.548Z,14.30
2018-11-14T22:53:56.551Z,17.60
2018-11-14T22:54:56.555Z,12.40
2018-11-14T22:55:56.515Z,16.00
2018-11-14T22:56:56.502Z,18.20
2018-11-14T22:57:56.494Z,15.70
2018-11-14T22:58:56.482Z,15.70
2018-11-14T22:59:56.484Z,15.00
2018-11-14T23:00:56.475Z,16.60
2018-11-14T23:01:56.457Z,15.90
2018-11-14T23:02:56.440Z,17.00
2018-11-14T23:03:56.424Z,18.30
2018-11-14T23:04:56.471Z,15.40
2018-11-14T23:05:56.445Z,18.30
2018-11-14T23:06:56.398Z,18.60
2018-11-14T23:07:56.391Z,20.90
2018-11-14T23:08:56.382Z,20.60
2018-11-14T23:09:56.447Z,18.10
2018-11-14T23:10:56.370Z,19.10
2018-11-14T23:11:56.385Z,18.10
2018-11-14T23:12:56.328Z,16.00
2018-11-14T23:13:56.322Z,14.70
2018-11-14T23:14:56.305Z,17.20
2018-11-14T23:15:56.341Z,17.60
2018-11-14T23:16:56.286Z,17.20
2018-11-14T23:17:56.294Z,19.30
2018-11-14T23:18:56.277Z,20.30
2018-11-14T23:19:56.258Z,17.20
2018-11-14T23:20:56.248Z,18.00
2018-11-14T23:21:56.253Z,14.60
2018-11-14T23:22:56.295Z,16.50
2018-11-14T23:23:56.208Z,16.30
2018-11-14T23:24:56.203Z,18.30
2018-11-14T23:25:56.218Z,16.30
2018-11-14T23:26:56.197Z,16.60
2018-11-14T23:27:56.201Z,16.50
2018-11-14T23:28:56.165Z,18.40
2018-11-14T23:29:56.149Z,16.80
2018-11-14T23:30:56.138Z,16.60
2018-11-14T23:31:56.158Z,17.10
2018-11-14T23:32:56.126Z,18.90
2018-11-14T23:33:56.106Z,17.20
2018-11-14T23:34:56.098Z,21.10
2018-11-14T23:35:56.082Z,18.90
2018-11-14T23:36:56.066Z,19.70
2018-11-14T23:37:56.103Z,16.10
2018-11-14T23:38:56.050Z,21.80
2018-11-14T23:39:56.054Z,17.80
2018-11-14T23:40:56.027Z,18.10
2018-11-14T23:41:56.016Z,18.40
2018-11-14T23:42:56.026Z,19.30
2018-11-14T23:43:55.999Z,18.00
2018-11-14T23:44:55.995Z,21.00
2018-11-14T23:45:55.975Z,19.60
2018-11-14T23:46:55.968Z,21.40
2018-11-14T23:47:56.013Z,19.40
2018-11-14T23:48:55.957Z,17.00
2018-11-14T23:49:55.933Z,19.00
2018-11-14T23:50:55.971Z,16.40
2018-11-14T23:51:55.911Z,17.50
2018-11-14T23:52:55.929Z,18.30
2018-11-14T23:53:55.889Z,16.50
2018-11-14T23:54:55.896Z,17.70
2018-11-14T23:55:55.897Z,16.00
2018-11-14T23:56:55.857Z,16.80
2018-11-14T23:57:55.854Z,17.90
2018-11-14T23:58:55.866Z,17.20
2018-11-14T23:59:55.832Z,17.20
